createdAt,value
2019-04-04T00:00:16.858Z,20.60
2019-04-04T00:01:16.994Z,20.60
2019-04-04T00:02:17.086Z,20.60
2019-04-04T00:03:16.571Z,20.60
2019-04-04T00:04:16.561Z,20.63
2019-04-04T00:05:16.556Z,20.60
2019-04-04T00:06:16.556Z,20.62
2019-04-04T00:07:16.525Z,20.60
2019-04-04T00:08:16.513Z,20.60
2019-04-04T00:09:16.528Z,20.62
2019-04-04T00:10:16.495Z,20.60
2019-04-04T00:11:16.485Z,20.60
2019-04-04T00:12:16.469Z,20.60
2019-04-04T00:13:16.456Z,20.62
2019-04-04T00:14:16.451Z,20.60
2019-04-04T00:15:16.463Z,20.60
2019-04-04T00:16:16.654Z,20.60
2019-04-04T00:17:16.422Z,20.60
2019-04-04T00:18:16.404Z,20.62
2019-04-04T00:19:16.398Z,20.59
2019-04-04T00:20:16.420Z,20.60
2019-04-04T00:21:16.377Z,20.59
2019-04-04T00:22:16.457Z,20.60
2019-04-04T00:23:16.353Z,20.60
2019-04-04T00:24:16.338Z,20.60
2019-04-04T00:25:16.330Z,20.59
2019-04-04T00:26:16.347Z,20.59
2019-04-04T00:27:16.309Z,20.60
2019-04-04T00:28:16.295Z,20.60
2019-04-04T00:29:17.297Z,20.60
2019-04-04T00:30:17.990Z,20.60
2019-04-04T00:31:18.912Z,20.60
2019-04-04T00:32:16.253Z,20.59
2019-04-04T00:33:16.246Z,20.60
2019-04-04T00:34:16.252Z,20.60
2019-04-04T00:35:16.247Z,20.59
2019-04-04T00:36:16.213Z,20.59
2019-04-04T00:37:16.196Z,20.59
2019-04-04T00:38:16.188Z,20.59
2019-04-04T00:39:16.179Z,20.60
2019-04-04T00:40:16.196Z,20.59
2019-04-04T00:41:16.153Z,20.60
2019-04-04T00:42:17.058Z,20.60
2019-04-04T00:43:16.131Z,20.60
2019-04-04T00:44:16.125Z,20.59
2019-04-04T00:45:16.128Z,20.59
2019-04-04T00:46:16.099Z,20.59
2019-04-04T00:47:16.083Z,20.59
2019-04-04T00:48:16.072Z,20.58
2019-04-04T00:49:16.064Z,20.59
2019-04-04T00:50:16.074Z,20.59
2019-04-04T00:51:16.041Z,20.58
2019-04-04T00:52:16.031Z,20.59
2019-04-04T00:53:16.021Z,20.59
2019-04-04T00:54:16.013Z,20.58
2019-04-04T00:55:16.378Z,20.58
2019-04-04T00:56:17.996Z,20.59
2019-04-04T00:57:17.238Z,20.59
2019-04-04T00:58:15.966Z,20.59
2019-04-04T00:59:15.953Z,20.58
2019-04-04T01:00:15.950Z,20.59
2019-04-04T01:01:16.645Z,20.58
2019-04-04T01:02:15.951Z,20.59
2019-04-04T01:03:15.916Z,20.58
2019-04-04T01:04:15.900Z,20.59
2019-04-04T01:05:15.896Z,20.58
2019-04-04T01:06:15.883Z,20.58
2019-04-04T01:07:15.870Z,20.58
2019-04-04T01:08:15.881Z,20.56
2019-04-04T01:09:15.853Z,20.58
2019-04-04T01:10:18.708Z,20.58
2019-04-04T01:11:15.828Z,20.58
2019-04-04T01:12:15.818Z,20.58
2019-04-04T01:13:15.805Z,20.58
2019-04-04T01:14:15.824Z,20.58
2019-04-04T01:15:15.788Z,20.58
2019-04-04T01:16:15.775Z,20.58
2019-04-04T01:17:15.760Z,20.58
2019-04-04T01:18:15.755Z,20.56
2019-04-04T01:19:15.737Z,20.58
2019-04-04T01:20:15.749Z,20.58
2019-04-04T01:21:15.722Z,20.56
2019-04-04T01:22:15.704Z,20.56
2019-04-04T01:23:15.695Z,20.58
2019-04-04T01:24:15.690Z,20.56
2019-04-04T01:25:15.672Z,20.56
2019-04-04T01:26:15.691Z,20.58
2019-04-04T01:27:15.654Z,20.58
2019-04-04T01:28:15.641Z,20.58
2019-04-04T01:29:15.630Z,20.58
2019-04-04T01:30:15.616Z,20.56
2019-04-04T01:31:15.644Z,20.56
2019-04-04T01:32:17.033Z,20.56
2019-04-04T01:33:15.588Z,20.56
2019-04-04T01:34:15.574Z,20.55
2019-04-04T01:35:15.571Z,20.56
2019-04-04T01:36:15.559Z,20.55
2019-04-04T01:37:15.577Z,20.56
2019-04-04T01:38:15.534Z,20.55
2019-04-04T01:39:15.521Z,20.55
2019-04-04T01:40:15.518Z,20.55
2019-04-04T01:41:15.500Z,20.55
2019-04-04T01:42:15.487Z,20.55
2019-04-04T01:43:15.521Z,20.56
2019-04-04T01:44:15.471Z,20.55
2019-04-04T01:45:15.455Z,20.55
2019-04-04T01:46:15.771Z,20.55
2019-04-04T01:47:17.123Z,20.55
2019-04-04T01:48:18.437Z,20.55
2019-04-04T01:49:15.414Z,20.52
2019-04-04T01:50:15.405Z,20.56
2019-04-04T01:51:15.391Z,20.55
2019-04-04T01:52:15.382Z,20.55
2019-04-04T01:53:15.373Z,20.56
2019-04-04T01:54:15.388Z,20.55
2019-04-04T01:55:15.347Z,20.55
2019-04-04T01:56:15.339Z,20.55
2019-04-04T01:57:15.335Z,20.52
2019-04-04T01:58:15.315Z,20.55
2019-04-04T01:59:15.335Z,20.55
2019-04-04T02:00:15.878Z,20.52
2019-04-04T02:01:16.628Z,20.52
2019-04-04T02:02:17.797Z,20.55
2019-04-04T02:03:15.264Z,20.55
2019-04-04T02:04:15.282Z,20.56
2019-04-04T02:05:15.248Z,20.55
2019-04-04T02:06:15.299Z,20.55
2019-04-04T02:07:15.221Z,20.55
2019-04-04T02:08:15.216Z,20.52
2019-04-04T02:09:15.199Z,20.52
2019-04-04T02:10:15.235Z,20.52
2019-04-04T02:11:15.184Z,20.52
2019-04-04T02:12:15.170Z,20.55
2019-04-04T02:13:15.156Z,20.52
2019-04-04T02:14:15.143Z,20.55
2019-04-04T02:15:15.247Z,20.52
2019-04-04T02:16:17.077Z,20.52
2019-04-04T02:17:15.111Z,20.52
2019-04-04T02:18:15.105Z,20.55
2019-04-04T02:19:15.092Z,20.52
2019-04-04T02:20:15.085Z,20.52
2019-04-04T02:21:15.095Z,20.55
2019-04-04T02:22:15.066Z,20.52
2019-04-04T02:23:15.056Z,20.52
2019-04-04T02:24:15.038Z,20.55
2019-04-04T02:25:15.033Z,20.52
2019-04-04T02:26:15.042Z,20.55
2019-04-04T02:27:15.011Z,20.52
2019-04-04T02:28:15.001Z,20.55
2019-04-04T02:29:14.985Z,20.51
2019-04-04T02:30:16.293Z,20.52
2019-04-04T02:31:14.982Z,20.55
2019-04-04T02:32:14.979Z,20.51
2019-04-04T02:33:14.943Z,20.52
2019-04-04T02:34:14.930Z,20.51
2019-04-04T02:35:14.918Z,20.52
2019-04-04T02:36:16.669Z,20.52
2019-04-04T02:37:14.906Z,20.52
2019-04-04T02:38:14.915Z,20.52
2019-04-04T02:39:14.882Z,20.52
2019-04-04T02:40:14.865Z,20.52
2019-04-04T02:41:15.425Z,20.52
2019-04-04T02:42:14.851Z,20.51
2019-04-04T02:43:14.878Z,20.52
2019-04-04T02:44:14.824Z,20.52
2019-04-04T02:45:14.812Z,20.51
2019-04-04T02:46:14.800Z,20.52
2019-04-04T02:47:17.176Z,20.52
2019-04-04T02:48:14.786Z,20.52
2019-04-04T02:49:14.795Z,20.52
2019-04-04T02:50:14.763Z,20.52
2019-04-04T02:51:14.751Z,20.52
2019-04-04T02:52:14.742Z,20.51
2019-04-04T02:53:19.221Z,20.52
2019-04-04T02:54:15.745Z,20.51
2019-04-04T02:55:14.707Z,20.51
2019-04-04T02:56:14.733Z,20.52
2019-04-04T02:57:14.686Z,20.52
2019-04-04T02:58:15.431Z,20.51
2019-04-04T02:59:20.166Z,20.51
2019-04-04T03:00:15.654Z,20.51
2019-04-04T03:01:14.640Z,20.51
2019-04-04T03:02:14.656Z,20.52
2019-04-04T03:03:14.624Z,20.51
2019-04-04T03:04:14.615Z,20.51
2019-04-04T03:05:18.749Z,20.52
2019-04-04T03:06:15.587Z,20.52
2019-04-04T03:07:14.600Z,20.52
2019-04-04T03:08:14.568Z,20.51
2019-04-04T03:09:14.564Z,20.51
2019-04-04T03:10:16.500Z,20.52
2019-04-04T03:11:14.538Z,20.51
2019-04-04T03:12:14.522Z,20.51
2019-04-04T03:13:14.539Z,20.52
2019-04-04T03:14:14.505Z,20.52
2019-04-04T03:15:14.489Z,20.51
2019-04-04T03:16:14.483Z,20.52
2019-04-04T03:17:14.472Z,20.51
2019-04-04T03:18:14.484Z,20.55
2019-04-04T03:19:14.447Z,20.51
2019-04-04T03:20:17.217Z,20.51
2019-04-04T03:21:14.435Z,20.51
2019-04-04T03:22:14.425Z,20.52
2019-04-04T03:23:14.453Z,20.51
2019-04-04T03:24:14.392Z,20.52
2019-04-04T03:25:15.536Z,20.52
2019-04-04T03:26:18.937Z,20.51
2019-04-04T03:27:15.366Z,20.51
2019-04-04T03:28:14.353Z,20.51
2019-04-04T03:29:14.369Z,20.51
2019-04-04T03:30:17.045Z,20.50
2019-04-04T03:31:14.333Z,20.51
2019-04-04T03:32:16.521Z,20.51
2019-04-04T03:33:14.328Z,20.51
2019-04-04T03:34:14.334Z,20.50
2019-04-04T03:35:14.280Z,20.50
2019-04-04T03:36:14.269Z,20.51
2019-04-04T03:37:14.256Z,20.52
2019-04-04T03:38:14.244Z,20.51
2019-04-04T03:39:19.259Z,20.50
2019-04-04T03:40:15.226Z,20.51
2019-04-04T03:41:14.220Z,20.50
2019-04-04T03:42:14.211Z,20.51
2019-04-04T03:43:16.097Z,20.51
2019-04-04T03:44:14.210Z,20.51
2019-04-04T03:45:14.175Z,20.51
2019-04-04T03:46:14.186Z,20.50
2019-04-04T03:47:14.154Z,20.51
2019-04-04T03:48:17.556Z,20.50
2019-04-04T03:49:14.130Z,20.50
2019-04-04T03:50:14.114Z,20.51
2019-04-04T03:51:14.137Z,20.51
2019-04-04T03:52:14.102Z,20.50
2019-04-04T03:53:17.354Z,20.50
2019-04-04T03:54:14.072Z,20.51
2019-04-04T03:55:14.065Z,20.50
2019-04-04T03:56:14.054Z,20.51
2019-04-04T03:57:14.077Z,20.51
2019-04-04T03:58:14.032Z,20.50
2019-04-04T03:59:14.023Z,20.51
2019-04-04T04:00:14.018Z,20.50
2019-04-04T04:01:14.033Z,20.51
2019-04-04T04:02:17.910Z,20.50
2019-04-04T04:03:13.975Z,20.51
2019-04-04T04:04:13.967Z,20.50
2019-04-04T04:05:14.776Z,20.50
2019-04-04T04:06:13.976Z,20.50
2019-04-04T04:07:15.240Z,20.50
2019-04-04T04:08:13.927Z,20.50
2019-04-04T04:09:13.917Z,20.50
2019-04-04T04:10:13.908Z,20.50
2019-04-04T04:11:13.899Z,20.50
2019-04-04T04:12:13.911Z,20.50
2019-04-04T04:13:17.272Z,20.50
2019-04-04T04:14:13.867Z,20.50
2019-04-04T04:15:13.847Z,20.50
2019-04-04T04:16:13.838Z,20.50
2019-04-04T04:17:13.830Z,20.51
2019-04-04T04:18:13.838Z,20.50
2019-04-04T04:19:13.807Z,20.51
2019-04-04T04:20:13.798Z,20.51
2019-04-04T04:21:13.798Z,20.51
2019-04-04T04:22:18.274Z,20.51
2019-04-04T04:23:14.790Z,20.52
2019-04-04T04:24:13.756Z,20.55
2019-04-04T04:25:13.744Z,20.55
2019-04-04T04:26:13.733Z,20.56
2019-04-04T04:27:15.423Z,20.56
2019-04-04T04:28:13.763Z,20.58
2019-04-04T04:29:13.716Z,20.59
2019-04-04T04:30:13.686Z,20.60
2019-04-04T04:31:15.313Z,20.62
2019-04-04T04:32:13.694Z,20.63
2019-04-04T04:33:13.657Z,20.65
2019-04-04T04:34:13.700Z,20.66
2019-04-04T04:35:13.636Z,20.67
2019-04-04T04:36:15.688Z,20.69
2019-04-04T04:37:13.618Z,20.69
2019-04-04T04:38:13.604Z,20.72
2019-04-04T04:39:13.815Z,20.72
2019-04-04T04:40:15.058Z,20.74
2019-04-04T04:41:13.575Z,20.75
2019-04-04T04:42:13.558Z,20.77
2019-04-04T04:43:15.448Z,20.77
2019-04-04T04:44:13.541Z,20.78
2019-04-04T04:45:13.556Z,20.78
2019-04-04T04:46:16.741Z,20.80
2019-04-04T04:47:13.511Z,20.80
2019-04-04T04:48:13.502Z,20.81
2019-04-04T04:49:13.496Z,20.81
2019-04-04T04:50:13.498Z,20.81
2019-04-04T04:51:13.469Z,20.81
2019-04-04T04:52:15.180Z,20.81
2019-04-04T04:53:13.445Z,20.82
2019-04-04T04:54:13.436Z,20.81
2019-04-04T04:55:13.425Z,20.82
2019-04-04T04:56:13.412Z,20.84
2019-04-04T04:57:28.367Z,20.84
2019-04-04T04:58:14.412Z,20.85
2019-04-04T04:59:13.952Z,20.84
2019-04-04T05:00:14.004Z,20.85
2019-04-04T05:01:13.356Z,20.82
2019-04-04T05:02:13.367Z,20.82
2019-04-04T05:03:13.333Z,20.84
2019-04-04T05:04:13.323Z,20.84
2019-04-04T05:05:13.337Z,20.84
2019-04-04T05:06:13.330Z,20.84
2019-04-04T05:07:13.455Z,20.84
2019-04-04T05:08:13.281Z,20.84
2019-04-04T05:09:14.066Z,20.84
2019-04-04T05:10:14.945Z,20.84
2019-04-04T05:11:14.632Z,20.82
2019-04-04T05:12:13.250Z,20.84
2019-04-04T05:13:13.256Z,20.82
2019-04-04T05:14:13.217Z,20.82
2019-04-04T05:15:13.206Z,20.82
2019-04-04T05:16:13.195Z,20.84
2019-04-04T05:17:13.192Z,20.82
2019-04-04T05:18:14.092Z,20.84
2019-04-04T05:19:13.166Z,20.82
2019-04-04T05:20:13.151Z,20.82
2019-04-04T05:21:24.486Z,20.81
2019-04-04T05:22:14.137Z,20.81
2019-04-04T05:23:13.368Z,20.81
2019-04-04T05:24:13.139Z,20.81
2019-04-04T05:25:13.098Z,20.81
2019-04-04T05:26:13.096Z,20.81
2019-04-04T05:27:13.082Z,20.80
2019-04-04T05:28:13.066Z,20.81
2019-04-04T05:29:14.066Z,20.80
2019-04-04T05:30:15.935Z,20.78
2019-04-04T05:31:13.037Z,20.80
2019-04-04T05:32:13.024Z,20.80
2019-04-04T05:33:13.035Z,20.80
2019-04-04T05:34:13.020Z,20.78
2019-04-04T05:35:15.150Z,20.78
2019-04-04T05:36:12.983Z,20.78
2019-04-04T05:37:12.974Z,20.78
2019-04-04T05:38:12.959Z,20.77
2019-04-04T05:39:12.952Z,20.77
2019-04-04T05:40:12.950Z,20.77
2019-04-04T05:41:12.953Z,20.75
2019-04-04T05:42:12.922Z,20.78
2019-04-04T05:43:14.959Z,20.77
2019-04-04T05:44:12.897Z,20.77
2019-04-04T05:45:14.459Z,20.77
2019-04-04T05:46:12.902Z,20.75
2019-04-04T05:47:12.860Z,20.75
2019-04-04T05:48:12.861Z,20.75
2019-04-04T05:49:12.882Z,20.75
2019-04-04T05:50:12.832Z,20.77
2019-04-04T05:51:14.922Z,20.75
2019-04-04T05:52:12.815Z,20.75
2019-04-04T05:53:12.804Z,20.74
2019-04-04T05:54:12.825Z,20.74
2019-04-04T05:55:12.781Z,20.72
2019-04-04T05:56:13.027Z,20.74
2019-04-04T05:57:12.758Z,20.74
2019-04-04T05:58:12.747Z,20.72
2019-04-04T05:59:12.739Z,20.72
2019-04-04T06:00:12.751Z,20.74
2019-04-04T06:01:12.712Z,20.70
2019-04-04T06:02:12.700Z,20.70
2019-04-04T06:03:13.047Z,20.72
2019-04-04T06:04:12.691Z,20.72
2019-04-04T06:05:12.719Z,20.70
2019-04-04T06:06:12.694Z,20.70
2019-04-04T06:07:12.660Z,20.70
2019-04-04T06:08:12.639Z,20.70
2019-04-04T06:09:14.625Z,20.69
2019-04-04T06:10:12.621Z,20.70
2019-04-04T06:11:12.635Z,20.69
2019-04-04T06:12:12.633Z,20.69
2019-04-04T06:13:12.586Z,20.70
2019-04-04T06:14:12.572Z,20.69
2019-04-04T06:15:12.566Z,20.69
2019-04-04T06:16:12.555Z,20.69
2019-04-04T06:17:12.542Z,20.70
2019-04-04T06:18:12.555Z,20.69
2019-04-04T06:19:14.781Z,20.69
2019-04-04T06:20:14.721Z,20.67
2019-04-04T06:21:12.499Z,20.69
2019-04-04T06:22:12.485Z,20.70
2019-04-04T06:23:12.501Z,20.69
2019-04-04T06:24:12.468Z,20.69
2019-04-04T06:25:12.454Z,20.69
2019-04-04T06:26:12.445Z,20.69
2019-04-04T06:27:12.464Z,20.69
2019-04-04T06:28:12.706Z,20.69
2019-04-04T06:29:12.443Z,20.69
2019-04-04T06:30:12.402Z,20.67
2019-04-04T06:31:12.392Z,20.67
2019-04-04T06:32:12.379Z,20.69
2019-04-04T06:33:12.370Z,20.67
2019-04-04T06:34:12.442Z,20.67
2019-04-04T06:35:13.283Z,20.67
2019-04-04T06:36:12.343Z,20.69
2019-04-04T06:37:12.323Z,20.67
2019-04-04T06:38:12.319Z,20.67
2019-04-04T06:39:12.332Z,20.69
2019-04-04T06:40:12.295Z,20.69
2019-04-04T06:41:12.291Z,20.69
2019-04-04T06:42:12.269Z,20.67
2019-04-04T06:43:12.273Z,20.69
2019-04-04T06:44:13.131Z,20.69
2019-04-04T06:45:15.121Z,20.69
2019-04-04T06:46:12.257Z,20.69
2019-04-04T06:47:12.218Z,20.69
2019-04-04T06:48:12.205Z,20.70
2019-04-04T06:49:12.193Z,20.70
2019-04-04T06:50:12.398Z,20.70
2019-04-04T06:51:14.391Z,20.67
2019-04-04T06:52:12.159Z,20.69
2019-04-04T06:53:12.151Z,20.70
2019-04-04T06:54:12.140Z,20.70
2019-04-04T06:55:12.132Z,20.70
2019-04-04T06:56:12.148Z,20.69
2019-04-04T06:57:12.109Z,20.70
2019-04-04T06:58:12.098Z,20.70
2019-04-04T06:59:12.493Z,20.70
2019-04-04T07:00:15.378Z,20.72
2019-04-04T07:01:12.089Z,20.70
2019-04-04T07:02:12.054Z,20.72
2019-04-04T07:03:12.046Z,20.72
2019-04-04T07:04:12.035Z,20.72
2019-04-04T07:05:12.024Z,20.72
2019-04-04T07:06:12.019Z,20.74
2019-04-04T07:07:12.753Z,20.74
2019-04-04T07:08:14.943Z,20.74
2019-04-04T07:09:13.506Z,20.74
2019-04-04T07:10:12.017Z,20.75
2019-04-04T07:11:20.949Z,20.74
2019-04-04T07:12:22.289Z,20.75
2019-04-04T07:13:21.685Z,20.75
2019-04-04T07:14:12.925Z,20.77
2019-04-04T07:15:15.553Z,20.77
2019-04-04T07:16:11.905Z,20.77
2019-04-04T07:17:11.901Z,20.75
2019-04-04T07:18:12.307Z,20.75
2019-04-04T07:19:14.189Z,20.75
2019-04-04T07:20:11.865Z,20.78
2019-04-04T07:21:11.852Z,20.77
2019-04-04T07:22:11.840Z,20.77
2019-04-04T07:23:14.345Z,20.78
2019-04-04T07:24:11.846Z,20.78
2019-04-04T07:25:11.810Z,20.80
2019-04-04T07:26:14.813Z,20.78
2019-04-04T07:27:11.786Z,20.80
2019-04-04T07:28:11.778Z,20.80
2019-04-04T07:29:11.769Z,20.80
2019-04-04T07:30:11.778Z,20.81
2019-04-04T07:31:11.742Z,20.80
2019-04-04T07:32:11.731Z,20.78
2019-04-04T07:33:12.677Z,20.81
2019-04-04T07:34:12.150Z,20.80
2019-04-04T07:35:11.704Z,20.81
2019-04-04T07:36:11.685Z,20.82
2019-04-04T07:37:11.678Z,20.81
2019-04-04T07:38:11.672Z,20.82
2019-04-04T07:39:12.398Z,20.80
2019-04-04T07:40:11.654Z,20.80
2019-04-04T07:41:14.587Z,20.81
2019-04-04T07:42:11.629Z,20.80
2019-04-04T07:43:11.618Z,20.82
2019-04-04T07:44:11.631Z,20.81
2019-04-04T07:45:14.261Z,20.80
2019-04-04T07:46:16.706Z,20.81
2019-04-04T07:47:15.828Z,20.80
2019-04-04T07:48:12.370Z,20.81
2019-04-04T07:49:11.767Z,20.80
2019-04-04T07:50:11.541Z,20.80
2019-04-04T07:51:11.527Z,20.80
2019-04-04T07:52:11.522Z,20.81
2019-04-04T07:53:11.509Z,20.80
2019-04-04T07:54:11.499Z,20.81
2019-04-04T07:55:11.508Z,20.81
2019-04-04T07:56:13.902Z,20.80
2019-04-04T07:57:11.462Z,20.80
2019-04-04T07:58:11.455Z,20.80
2019-04-04T07:59:11.443Z,20.80
2019-04-04T08:00:11.481Z,20.81
2019-04-04T08:01:11.427Z,20.81
2019-04-04T08:02:11.421Z,20.80
2019-04-04T08:03:11.404Z,20.80
2019-04-04T08:04:11.386Z,20.80
2019-04-04T08:05:13.182Z,20.81
2019-04-04T08:06:11.368Z,20.81
2019-04-04T08:07:11.361Z,20.82
2019-04-04T08:08:11.350Z,20.82
2019-04-04T08:09:11.334Z,20.82
2019-04-04T08:10:20.610Z,20.82
2019-04-04T08:11:13.389Z,20.84
2019-04-04T08:12:11.306Z,20.84
2019-04-04T08:13:11.294Z,20.84
2019-04-04T08:14:11.285Z,20.84
2019-04-04T08:15:11.279Z,20.85
2019-04-04T08:16:11.288Z,20.87
2019-04-04T08:17:11.251Z,20.85
2019-04-04T08:18:11.238Z,20.87
2019-04-04T08:19:11.243Z,20.85
2019-04-04T08:20:11.223Z,20.85
2019-04-04T08:21:11.232Z,20.85
2019-04-04T08:22:11.321Z,20.85
2019-04-04T08:23:11.195Z,20.85
2019-04-04T08:24:11.177Z,20.85
2019-04-04T08:25:11.168Z,20.85
2019-04-04T08:26:11.160Z,20.87
2019-04-04T08:27:11.170Z,20.87
2019-04-04T08:28:11.129Z,20.87
2019-04-04T08:29:11.123Z,20.87
2019-04-04T08:30:11.110Z,20.87
2019-04-04T08:31:11.105Z,20.87
2019-04-04T08:32:11.094Z,20.88
2019-04-04T08:33:11.161Z,20.87
2019-04-04T08:34:11.070Z,20.87
2019-04-04T08:35:11.062Z,20.88
2019-04-04T08:36:11.044Z,20.87
2019-04-04T08:37:11.034Z,20.88
2019-04-04T08:38:11.055Z,20.88
2019-04-04T08:39:11.017Z,20.88
2019-04-04T08:40:11.010Z,20.88
2019-04-04T08:41:11.016Z,20.87
2019-04-04T08:42:11.046Z,20.88
2019-04-04T08:43:11.007Z,20.87
2019-04-04T08:44:10.966Z,20.88
2019-04-04T08:45:10.950Z,20.90
2019-04-04T08:46:10.941Z,20.88
2019-04-04T08:47:10.929Z,20.88
2019-04-04T08:48:10.921Z,20.88
2019-04-04T08:49:10.933Z,20.88
2019-04-04T08:50:10.898Z,20.88
2019-04-04T08:51:10.908Z,20.88
2019-04-04T08:52:16.454Z,20.88
2019-04-04T08:53:11.863Z,20.88
2019-04-04T08:54:10.886Z,20.88
2019-04-04T08:55:10.850Z,20.90
2019-04-04T08:56:10.838Z,20.87
2019-04-04T08:57:10.823Z,20.88
2019-04-04T08:58:10.823Z,20.90
2019-04-04T08:59:10.801Z,20.88
2019-04-04T09:00:10.817Z,20.90
2019-04-04T09:01:10.980Z,20.88
2019-04-04T09:02:10.770Z,20.90
2019-04-04T09:03:10.759Z,20.88
2019-04-04T09:04:10.750Z,20.90
2019-04-04T09:05:12.161Z,20.90
2019-04-04T09:06:10.722Z,20.90
2019-04-04T09:07:10.741Z,20.90
2019-04-04T09:08:10.709Z,20.90
2019-04-04T09:09:10.696Z,20.90
2019-04-04T09:10:10.680Z,20.90
2019-04-04T09:11:10.891Z,20.88
2019-04-04T09:12:10.658Z,20.90
2019-04-04T09:13:10.650Z,20.88
2019-04-04T09:14:10.646Z,20.90
2019-04-04T09:15:10.633Z,20.90
2019-04-04T09:16:10.624Z,20.90
2019-04-04T09:17:10.630Z,20.90
2019-04-04T09:18:10.596Z,20.90
2019-04-04T09:19:10.586Z,20.90
2019-04-04T09:20:10.575Z,20.93
2019-04-04T09:21:10.569Z,20.88
2019-04-04T09:22:10.987Z,20.92
2019-04-04T09:23:10.546Z,20.90
2019-04-04T09:24:10.530Z,20.92
2019-04-04T09:25:10.936Z,20.92
2019-04-04T09:26:10.515Z,20.92
2019-04-04T09:27:10.502Z,20.92
2019-04-04T09:28:10.705Z,20.92
2019-04-04T09:29:10.480Z,20.92
2019-04-04T09:30:10.474Z,20.92
2019-04-04T09:31:10.457Z,20.93
2019-04-04T09:32:10.443Z,20.92
2019-04-04T09:33:10.440Z,20.92
2019-04-04T09:34:10.449Z,20.93
2019-04-04T09:35:10.418Z,20.93
2019-04-04T09:36:10.402Z,20.93
2019-04-04T09:37:10.395Z,20.92
2019-04-04T09:38:10.389Z,20.93
2019-04-04T09:39:10.400Z,20.92
2019-04-04T09:40:10.365Z,20.95
2019-04-04T09:41:10.350Z,20.95
2019-04-04T09:42:10.344Z,20.93
2019-04-04T09:43:10.331Z,20.93
2019-04-04T09:44:10.339Z,20.93
2019-04-04T09:45:10.309Z,20.95
2019-04-04T09:46:10.294Z,20.95
2019-04-04T09:47:10.290Z,20.95
2019-04-04T09:48:10.288Z,20.93
2019-04-04T09:49:12.850Z,20.95
2019-04-04T09:50:10.260Z,20.93
2019-04-04T09:51:10.242Z,20.93
2019-04-04T09:52:10.237Z,20.93
2019-04-04T09:53:10.224Z,20.93
2019-04-04T09:54:10.209Z,20.93
2019-04-04T09:55:10.245Z,20.92
2019-04-04T09:56:10.191Z,20.92
2019-04-04T09:57:10.181Z,20.93
2019-04-04T09:58:10.173Z,20.95
2019-04-04T09:59:10.158Z,20.93
2019-04-04T10:00:10.146Z,20.95
2019-04-04T10:01:10.158Z,20.93
2019-04-04T10:02:10.130Z,20.93
2019-04-04T10:03:10.114Z,20.92
2019-04-04T10:04:10.100Z,20.95
2019-04-04T10:05:10.111Z,20.93
2019-04-04T10:06:10.121Z,20.93
2019-04-04T10:07:10.465Z,20.95
2019-04-04T10:08:10.067Z,20.93
2019-04-04T10:09:16.031Z,20.95
2019-04-04T10:10:11.035Z,20.95
2019-04-04T10:11:10.027Z,20.93
2019-04-04T10:12:10.044Z,20.95
2019-04-04T10:13:10.008Z,20.95
2019-04-04T10:14:09.996Z,20.95
2019-04-04T10:15:09.989Z,20.95
2019-04-04T10:16:10.000Z,20.95
2019-04-04T10:17:10.058Z,20.95
2019-04-04T10:18:09.952Z,20.96
2019-04-04T10:19:09.946Z,20.95
2019-04-04T10:20:09.937Z,20.95
2019-04-04T10:21:12.085Z,20.95
2019-04-04T10:22:09.906Z,20.96
2019-04-04T10:23:12.932Z,20.96
2019-04-04T10:24:09.895Z,20.95
2019-04-04T10:25:09.883Z,20.96
2019-04-04T10:26:09.896Z,20.95
2019-04-04T10:27:09.883Z,20.96
2019-04-04T10:28:09.847Z,20.95
2019-04-04T10:29:09.833Z,20.96
2019-04-04T10:30:09.821Z,20.95
2019-04-04T10:31:09.811Z,20.96
2019-04-04T10:32:09.831Z,20.95
2019-04-04T10:33:09.793Z,20.95
2019-04-04T10:34:09.787Z,20.96
2019-04-04T10:35:09.776Z,20.96
2019-04-04T10:36:09.768Z,20.96
2019-04-04T10:37:09.780Z,20.96
2019-04-04T10:38:09.739Z,20.96
2019-04-04T10:39:09.725Z,20.95
2019-04-04T10:40:09.717Z,20.96
2019-04-04T10:41:09.704Z,20.96
2019-04-04T10:42:09.696Z,20.96
2019-04-04T10:43:09.738Z,20.96
2019-04-04T10:44:09.674Z,20.97
2019-04-04T10:45:09.665Z,20.97
2019-04-04T10:46:09.650Z,20.97
2019-04-04T10:47:09.643Z,20.97
2019-04-04T10:48:09.632Z,20.97
2019-04-04T10:49:09.648Z,20.96
2019-04-04T10:50:09.614Z,20.97
2019-04-04T10:51:09.598Z,20.96
2019-04-04T10:52:09.594Z,20.97
2019-04-04T10:53:09.585Z,20.99
2019-04-04T10:54:09.635Z,20.97
2019-04-04T10:55:09.557Z,20.97
2019-04-04T10:56:09.551Z,20.97
2019-04-04T10:57:09.538Z,20.97
2019-04-04T10:58:09.527Z,20.97
2019-04-04T10:59:09.519Z,20.99
2019-04-04T11:00:09.530Z,20.97
2019-04-04T11:01:09.500Z,20.99
2019-04-04T11:02:09.488Z,20.97
2019-04-04T11:03:09.473Z,20.97
2019-04-04T11:04:09.458Z,20.99
2019-04-04T11:05:09.482Z,20.99
2019-04-04T11:06:09.445Z,20.97
2019-04-04T11:07:09.430Z,20.99
2019-04-04T11:08:09.440Z,21.00
2019-04-04T11:09:09.407Z,20.99
2019-04-04T11:10:09.401Z,20.99
2019-04-04T11:11:09.424Z,20.99
2019-04-04T11:12:09.380Z,20.99
2019-04-04T11:13:09.388Z,20.99
2019-04-04T11:14:09.363Z,20.99
2019-04-04T11:15:09.343Z,20.97
2019-04-04T11:16:09.334Z,20.99
2019-04-04T11:17:09.320Z,20.99
2019-04-04T11:18:09.336Z,21.00
2019-04-04T11:19:09.822Z,20.99
2019-04-04T11:20:09.289Z,21.00
2019-04-04T11:21:09.281Z,20.97
2019-04-04T11:22:09.268Z,21.00
2019-04-04T11:23:09.280Z,21.00
2019-04-04T11:24:09.283Z,21.00
2019-04-04T11:25:09.239Z,20.99
2019-04-04T11:26:09.227Z,21.00
2019-04-04T11:27:09.221Z,21.02
2019-04-04T11:28:09.204Z,20.99
2019-04-04T11:29:09.192Z,20.99
2019-04-04T11:30:09.239Z,21.00
2019-04-04T11:31:09.172Z,21.00
2019-04-04T11:32:09.166Z,21.00
2019-04-04T11:33:09.150Z,21.00
2019-04-04T11:34:09.144Z,21.00
2019-04-04T11:35:09.126Z,21.00
2019-04-04T11:36:09.149Z,21.00
2019-04-04T11:37:09.111Z,21.02
2019-04-04T11:38:09.105Z,21.00
2019-04-04T11:39:09.091Z,21.00
2019-04-04T11:40:09.107Z,20.99
2019-04-04T11:41:09.065Z,21.00
2019-04-04T11:42:09.051Z,21.00
2019-04-04T11:43:09.043Z,21.00
2019-04-04T11:44:09.031Z,21.00
2019-04-04T11:45:09.049Z,21.02
2019-04-04T11:46:09.045Z,21.00
2019-04-04T11:47:09.005Z,21.00
2019-04-04T11:48:08.994Z,21.02
2019-04-04T11:49:08.981Z,21.00
2019-04-04T11:50:08.986Z,21.02
2019-04-04T11:51:08.964Z,21.00
2019-04-04T11:52:08.981Z,21.02
2019-04-04T11:53:08.940Z,21.02
2019-04-04T11:54:08.932Z,21.02
2019-04-04T11:55:08.912Z,21.02
2019-04-04T11:56:08.903Z,21.03
2019-04-04T11:57:08.984Z,21.02
2019-04-04T11:58:08.886Z,21.03
2019-04-04T11:59:08.873Z,21.02
2019-04-04T12:00:08.865Z,21.03
2019-04-04T12:01:08.859Z,21.02
2019-04-04T12:02:08.845Z,21.02
2019-04-04T12:03:08.859Z,21.02
2019-04-04T12:04:08.833Z,21.03
2019-04-04T12:05:08.807Z,21.03
2019-04-04T12:06:08.797Z,21.00
2019-04-04T12:07:08.792Z,21.00
2019-04-04T12:08:08.811Z,21.00
2019-04-04T12:09:08.771Z,20.99
2019-04-04T12:10:08.755Z,21.00
2019-04-04T12:11:08.750Z,20.97
2019-04-04T12:12:08.736Z,20.99
2019-04-04T12:13:08.728Z,20.99
2019-04-04T12:14:08.736Z,20.97
2019-04-04T12:15:08.703Z,20.97
2019-04-04T12:16:08.695Z,20.97
2019-04-04T12:17:08.678Z,20.96
2019-04-04T12:18:08.706Z,20.96
2019-04-04T12:19:08.666Z,20.95
2019-04-04T12:20:08.645Z,20.96
2019-04-04T12:21:08.643Z,20.96
2019-04-04T12:22:11.583Z,20.96
2019-04-04T12:23:08.613Z,20.95
2019-04-04T12:24:08.650Z,20.95
2019-04-04T12:25:08.598Z,20.96
2019-04-04T12:26:08.588Z,20.95
2019-04-04T12:27:08.609Z,20.95
2019-04-04T12:28:08.567Z,20.93
2019-04-04T12:29:08.552Z,20.93
2019-04-04T12:30:08.544Z,20.93
2019-04-04T12:31:08.532Z,20.93
2019-04-04T12:32:08.523Z,20.93
2019-04-04T12:33:08.536Z,20.93
2019-04-04T12:34:08.503Z,20.93
2019-04-04T12:35:08.501Z,20.93
2019-04-04T12:36:08.482Z,20.93
2019-04-04T12:37:08.470Z,20.93
2019-04-04T12:38:08.483Z,20.92
2019-04-04T12:39:08.445Z,20.93
2019-04-04T12:40:19.665Z,20.92
2019-04-04T12:41:09.427Z,20.93
2019-04-04T12:42:08.410Z,20.93
2019-04-04T12:43:08.408Z,20.93
2019-04-04T12:44:08.421Z,20.92
2019-04-04T12:45:08.379Z,20.92
2019-04-04T12:46:08.372Z,20.92
2019-04-04T12:47:08.358Z,20.90
2019-04-04T12:48:09.235Z,20.92
2019-04-04T12:49:08.360Z,20.92
2019-04-04T12:50:08.326Z,20.92
2019-04-04T12:51:08.314Z,20.93
2019-04-04T12:52:08.332Z,20.95